Terminal Aerodrome Forecast
Issued by NWS Cleveland, OH

Home | Current Version | Previous Version | Graphics & Text | Print | Product List | Glossary On
Versions: 1 2 3 4 5 6 7 8 9 10 11 12 13 14 15 16 17 18 19 20 21 22 23
000
FTUS41 KCLE 251100
TAFTOL
TAF
KTOL 251133Z 2512/2612 13012KT 3SM -RA BR FEW010 BKN040 OVC070
      WS020/17045KT
     FM251330 21010G20KT P6SM BKN015 OVC045
      TEMPO 2514/2516 BKN009
     FM251800 25020G30KT P6SM BKN020
     FM252100 25014G20KT P6SM BKN250
     FM260000 24005KT P6SM BKN100 OVC250
     FM260900 33005KT P6SM VCSH BKN040 OVC100=

USA.gov is the U.S. government's official web portal to all federal, state and local government web resources and services.